Bei Facebook empfehlenBei Twitter postenGoogle plusPinterest

Das Wetter im Erzgebirge am 19.08.2017

Wetter und Klima am 19.08.2017 Holzhau im Erzgebirge (630m ü.NN)
Letzte gemessene Temperatur und Uhrzeit der Messung23:45:00 Uhr7.90 °C
Temperatur (Maximum / Höchstwert) und Uhrzeit der Messung16:15:00 Uhr21.50 °C
Temperatur (Minimum / Tiefstwert) und Uhrzeit der Messung23:45:007.90 °C
Errechneter Absolutwert der Temperaturschwankungen zwischen Tmin und Tmax des Tages13.60 K
Errechnete Tagesmitteltemperatur15.51250 °C
Gesamt - Niederschlag des Tages (in flüssiger Form)1.55 Liter / m²
Luftdruck (Maximum / Höchstwert) und Zeitpunkt der Messung23:30:00 Uhr1016.90 hPa
Luftdruck (Minimum / Tiefstwert) und Zeitpunkt der Messung00:45:00 Uhr1009.80 hPa
Errechneter Absolutwert der Luftdruckschwankungen des Tages7.10 hPa
Höchste gemessene Windgeschwindigkeit und Uhrzeit der Messung08:00:00 Uhr23.40 km/h
Errechnete Windhäufigkeit in Relation zu den Messwerten des Tages8.33333 %
Niedrigste Windkühle (Windchill) und Zeitpunkt der Messung23:45:00 Uhr7.90 °C
Taupunkt (Maximum / Höchstwert) und Uhrzeit der Messung00:15:00 Uhr14.90 °C
Taupunkt (Minimum / Tiefstwert) und Uhrzeit der Messung23:45:005.70 °C
Anzahl der automatisch eingelesenen Messwerte 96

Detaillierte Wetter- und Klima- Messwerte für den 19.08.2017 in Holzhau im Erzgebirge (630m ü.NN)
ZeitTemperaturLuftdruckRel. LuftfeuchteWindWindrichtungWindchillTaupunktNiederschlag l/m²
23:45:007.90 °C1016.80 hPa86.00 %5.70 °C1.55
23:30:008.20 °C1016.90 hPa85.00 %5.80 °C1.55
23:15:008.60 °C1016.60 hPa85.00 %6.20 °C1.55
23:00:008.90 °C1016.80 hPa85.00 %6.50 °C1.55
22:45:008.80 °C1016.80 hPa85.00 %6.40 °C1.55
22:30:008.90 °C1016.40 hPa84.00 %6.30 °C1.55
22:15:008.80 °C1016.50 hPa84.00 %6.20 °C1.55
22:00:008.90 °C1016.70 hPa81.00 %5.80 °C1.55
21:45:009.40 °C1016.50 hPa80.00 %6.10 °C1.55
21:30:009.90 °C1016.40 hPa78.00 %6.20 °C1.55
21:15:0010.40 °C1016.40 hPa78.00 %6.70 °C1.55
21:00:0010.90 °C1016.50 hPa77.00 %7.00 °C1.55
20:45:0011.20 °C1016.10 hPa75.00 %6.90 °C1.55
20:30:0011.90 °C1015.90 hPa71.00 %6.80 °C1.55
20:15:0012.90 °C1015.90 hPa69.00 %7.40 °C1.55
20:00:0013.90 °C1015.80 hPa64.00 %7.20 °C1.55
19:45:0014.90 °C1015.60 hPa61.00 %7.50 °C1.55
19:30:0015.80 °C1015.60 hPa58.00 %7.60 °C1.55
19:15:0016.80 °C1015.70 hPa55.00 %7.70 °C1.55
19:00:0017.50 °C1015.80 hPa53.00 %7.80 °C1.55
18:45:0018.30 °C1015.90 hPa51.00 %8.00 °C1.55
18:30:0018.70 °C1015.80 hPa53.00 %8.90 °C1.55
18:15:0019.40 °C1015.90 hPa51.00 %9.00 °C1.55
18:00:0019.70 °C1015.90 hPa51.00 %9.30 °C1.55
17:45:0020.50 °C1015.80 hPa50.00 %18.00 km/hNNW21.70 °C9.70 °C1.55
17:30:0021.10 °C1015.80 hPa49.00 %10.00 °C1.55
17:15:0020.70 °C1015.50 hPa53.00 %9.00 km/hWSW20.70 °C10.80 °C1.55
17:00:0020.60 °C1015.20 hPa53.00 %10.70 °C1.55
16:45:0020.30 °C1015.30 hPa52.00 %10.10 °C1.55
16:30:0020.80 °C1015.20 hPa53.00 %10.90 °C1.55
16:15:0021.50 °C1015.20 hPa53.00 %11.50 °C1.55
16:00:0021.40 °C1015.40 hPa56.00 %12.30 °C1.55
15:45:0020.80 °C1015.30 hPa57.00 %12.00 °C1.55
15:30:0020.40 °C1015.20 hPa55.00 %10.44 km/hNW20.40 °C11.10 °C1.55
15:15:0021.30 °C1015.40 hPa53.00 %11.30 °C1.55
15:00:0020.90 °C1015.20 hPa57.00 %12.10 °C1.55
14:45:0020.80 °C1015.40 hPa60.00 %12.80 °C1.55
14:30:0019.80 °C1015.30 hPa61.00 %12.10 °C1.55
14:15:0019.30 °C1015.20 hPa63.00 %12.10 °C1.55
14:00:0019.30 °C1015.10 hPa60.00 %11.30 °C1.55
13:45:0019.60 °C1015.20 hPa59.00 %11.40 °C1.55
13:30:0020.20 °C1015.20 hPa59.00 %11.90 °C1.55
13:15:0019.00 °C1015.00 hPa61.00 %11.30 °C1.55
13:00:0018.90 °C1014.90 hPa65.00 %12.20 °C1.55
12:45:0019.10 °C1015.00 hPa65.00 %12.40 °C1.55
12:30:0019.30 °C1015.00 hPa66.00 %12.80 °C1.55
12:15:0019.00 °C1014.90 hPa67.00 %12.70 °C1.55
12:00:0019.10 °C1014.90 hPa69.00 %13.30 °C1.55
11:45:0018.50 °C1014.90 hPa69.00 %12.70 °C1.55
11:30:0018.30 °C1014.70 hPa72.00 %13.20 °C1.55
11:15:0017.70 °C1014.90 hPa75.00 %13.20 °C1.55
11:00:0017.10 °C1014.70 hPa78.00 %13.20 °C1.55
10:45:0016.40 °C1014.80 hPa81.00 %9.00 km/hNW16.40 °C13.10 °C1.55
10:30:0016.30 °C1014.80 hPa83.00 %13.40 °C1.55
10:15:0015.60 °C1014.30 hPa86.00 %13.30 °C1.55
10:00:0015.00 °C1014.10 hPa87.00 %12.90 °C1.55
09:45:0014.70 °C1014.00 hPa87.00 %12.60 °C1.55
09:30:0014.40 °C1013.80 hPa88.00 %12.40 °C1.55
09:15:0014.40 °C1014.00 hPa89.00 %12.60 °C1.55
09:00:0014.10 °C1013.90 hPa90.00 %12.50 °C1.55
08:45:0013.90 °C1013.60 hPa91.00 %12.50 °C1.55
08:30:0013.80 °C1013.40 hPa91.00 %12.40 °C1.55
08:15:0013.70 °C1013.30 hPa92.00 %18.00 km/hSSW13.90 °C12.40 °C1.55
08:00:0013.50 °C1013.30 hPa92.00 %23.40 km/hNNW13.40 °C12.20 °C1.55
07:45:0013.40 °C1013.10 hPa93.00 %12.30 °C1.55
07:30:0013.30 °C1013.00 hPa93.00 %12.20 °C1.55
07:15:0013.30 °C1012.50 hPa93.00 %12.20 °C1.55
07:00:0013.20 °C1012.60 hPa94.00 %12.30 °C1.55
06:45:0012.90 °C1012.60 hPa93.00 %11.80 °C1.55
06:30:0012.90 °C1012.50 hPa93.00 %11.80 °C1.55
06:15:0013.10 °C1012.20 hPa93.00 %12.00 °C1.55
06:00:0013.40 °C1012.30 hPa93.00 %12.30 °C1.55
05:45:0013.50 °C1012.30 hPa93.00 %12.40 °C1.55
05:30:0013.50 °C1012.30 hPa93.00 %12.40 °C1.55
05:15:0013.50 °C1012.20 hPa93.00 %12.40 °C1.55
05:00:0013.60 °C1011.70 hPa93.00 %3.96 km/hWSW13.60 °C12.50 °C1.55
04:45:0013.80 °C1011.40 hPa93.00 %12.70 °C1.55
04:30:0013.80 °C1011.40 hPa93.00 %12.70 °C1.55
04:15:0013.90 °C1011.50 hPa93.00 %12.80 °C1.55
04:00:0013.90 °C1011.40 hPa94.00 %13.00 °C1.55
03:45:0013.90 °C1011.30 hPa93.00 %12.80 °C1.55
03:30:0013.90 °C1011.60 hPa93.00 %12.80 °C1.55
03:15:0014.10 °C1011.40 hPa93.00 %13.00 °C1.55
03:00:0014.30 °C1011.30 hPa93.00 %13.20 °C1.55
02:45:0014.70 °C1011.20 hPa93.00 %13.60 °C1.55
02:30:0014.90 °C1010.90 hPa93.00 %13.80 °C1.55
02:15:0015.10 °C1010.80 hPa93.00 %14.00 °C1.55
02:00:0015.30 °C1010.60 hPa93.00 %14.20 °C1.55
01:45:0015.40 °C1010.70 hPa93.00 %14.30 °C1.55
01:30:0015.60 °C1010.60 hPa93.00 %14.50 °C1.55
01:15:0015.50 °C1010.60 hPa93.00 %14.40 °C1.55
01:00:0015.50 °C1010.40 hPa92.00 %18.00 km/hWSW16.00 °C14.20 °C1.55
00:45:0015.80 °C1009.80 hPa92.00 %14.50 °C1.03
00:30:0016.10 °C1010.00 hPa92.00 %14.80 °C1.03
00:15:0016.20 °C1010.00 hPa92.00 %14.90 °C 
00:00:0016.20 °C1009.80 hPa91.00 %14.70 °C 

Permanenter Link zu dieser Seite: Wetter im Erzgebirge am 19.08.2017
Performance-Info: Die Erstellung der Seite / Statistik(en) / Tabelle(n) erforderte 5 Datenbankserver-Abfrage(n) und dauerte 122 Millisekunden. (Dieser Messwert ist von der Gesamt-Auslastung des Servers abhängig.)
Erzgebirge - Wetter | Erzgebirge - Wetter (Mobilgeräte) | Komplette Klimadatenbank